Time;durP1;ratioP1;P1;durP2;ratioP2;P2;SDS_P1;SDS_P2;PMS_P1;PMS_P2;Temp;Humidity;BMP_temperature;BMP_pressure;BME280_temperature;BME280_humidity;BME280_pressure;Samples;Min_cycle;Max_cycle;Signal;HPM_P1;HPM_P2
2022/03/12 00:16:50;;;;;;;10.63;8.50;;;8.60;99.90;;;;;;4764380;22;20459;-60
2022/03/12 00:19:20;;;;;;;11.27;8.00;;;8.60;99.90;;;;;;5071211;28;20469;-60
2022/03/12 00:21:49;;;;;;;8.50;7.57;;;8.60;99.90;;;;;;5081263;28;20465;-60
2022/03/12 00:24:21;;;;;;;9.77;7.27;;;8.50;99.90;;;;;;5079866;28;20465;-59
2022/03/12 00:26:50;;;;;;;11.93;8.77;;;8.50;99.90;;;;;;5077372;28;20493;-57
2022/03/12 00:29:25;;;;;;;8.30;6.73;;;8.50;99.90;;;;;;5059682;28;20553;-55
2022/03/12 00:31:56;;;;;;;9.53;7.50;;;8.50;99.90;;;;;;5071942;28;20456;-58
2022/03/12 00:34:25;;;;;;;10.23;7.83;;;8.40;99.90;;;;;;5079174;28;20465;-60
2022/03/12 00:36:58;;;;;;;9.37;6.53;;;8.50;99.90;;;;;;5078280;28;20468;-59
2022/03/12 00:39:25;;;;;;;9.33;7.00;;;8.40;99.90;;;;;;5062435;28;20538;-60
2022/03/12 00:41:52;;;;;;;10.37;7.70;;;8.40;99.90;;;;;;5079085;28;20466;-57
2022/03/12 00:44:20;;;;;;;8.90;8.00;;;8.40;99.90;;;;;;5078224;28;20461;-57
2022/03/12 00:46:47;;;;;;;14.23;7.43;;;8.40;99.90;;;;;;5078347;28;20489;-60
2022/03/12 00:49:24;;;;;;;9.07;8.00;;;8.30;99.90;;;;;;5078038;28;20470;-52
2022/03/12 00:51:52;;;;;;;10.20;8.13;;;8.30;99.90;;;;;;5079256;28;20464;-58
2022/03/12 00:54:29;;;;;;;10.10;8.07;;;8.40;99.90;;;;;;5075570;28;20466;-58
2022/03/12 00:57:05;;;;;;;9.83;7.60;;;8.30;99.90;;;;;;5076064;28;20458;-60
2022/03/12 00:59:35;;;;;;;9.17;8.03;;;8.30;99.90;;;;;;5070829;28;20805;-58
2022/03/12 01:02:05;;;;;;;14.40;10.27;;;8.30;99.90;;;;;;5073165;28;20461;-60
2022/03/12 01:04:43;;;;;;;10.00;8.30;;;8.30;99.90;;;;;;5060251;28;20477;-58
2022/03/12 01:07:11;;;;;;;8.10;7.27;;;8.30;99.90;;;;;;5072317;28;20796;-58
2022/03/12 01:09:40;;;;;;;10.53;9.43;;;8.20;99.90;;;;;;5074482;28;20544;-60
2022/03/12 01:12:11;;;;;;;9.23;7.53;;;8.20;99.90;;;;;;5058252;28;20520;-57
2022/03/12 01:14:41;;;;;;;9.97;8.87;;;8.20;99.90;;;;;;5073943;28;20896;-60
2022/03/12 01:17:12;;;;;;;11.97;7.40;;;8.20;99.90;;;;;;5078411;28;20485;-55
2022/03/12 01:19:40;;;;;;;9.30;8.03;;;8.20;99.90;;;;;;5069941;28;20476;-56
2022/03/12 01:22:17;;;;;;;9.60;8.53;;;8.20;99.90;;;;;;5057432;28;20466;-58
2022/03/12 01:24:44;;;;;;;10.03;8.70;;;8.20;99.90;;;;;;5071584;28;20469;-55
2022/03/12 01:27:14;;;;;;;10.33;9.00;;;8.20;99.90;;;;;;5058306;28;20563;-58
2022/03/12 01:29:41;;;;;;;11.27;10.17;;;8.20;99.90;;;;;;5060054;28;20974;-53
2022/03/12 01:32:14;;;;;;;13.40;11.13;;;8.10;99.90;;;;;;5077925;28;20462;-56
2022/03/12 01:34:43;;;;;;;14.00;10.40;;;8.10;99.90;;;;;;5077941;28;20457;-57
2022/03/12 01:37:19;;;;;;;8.93;8.03;;;8.10;99.90;;;;;;5077656;28;20458;-53
2022/03/12 01:39:51;;;;;;;12.57;8.80;;;8.00;99.90;;;;;;5078077;28;20469;-56
2022/03/12 01:42:21;;;;;;;13.33;9.00;;;8.10;99.90;;;;;;5058179;28;20976;-58
2022/03/12 01:44:53;;;;;;;10.40;8.57;;;8.00;99.90;;;;;;5057696;28;20466;-59
2022/03/12 01:47:28;;;;;;;10.43;7.67;;;8.00;99.90;;;;;;5058076;28;20494;-52
2022/03/12 01:49:56;;;;;;;10.70;8.90;;;8.00;99.90;;;;;;5059580;28;20767;-55
2022/03/12 01:52:27;;;;;;;11.40;8.40;;;7.90;99.90;;;;;;5059322;28;20806;-59
2022/03/12 01:55:06;;;;;;;10.23;8.27;;;7.90;99.90;;;;;;5056369;28;20898;-58
2022/03/12 01:57:33;;;;;;;9.03;8.10;;;7.90;99.90;;;;;;5057595;28;20808;-58
2022/03/12 02:00:02;;;;;;;11.03;7.20;;;7.90;99.90;;;;;;5065234;28;20520;-59
2022/03/12 02:02:36;;;;;;;10.20;8.00;;;7.90;99.90;;;;;;5060685;28;20466;-59
2022/03/12 02:05:08;;;;;;;11.07;8.20;;;7.90;99.90;;;;;;5065065;28;20484;-60
2022/03/12 02:07:35;;;;;;;11.07;8.10;;;7.80;99.90;;;;;;5070099;28;20956;-60
2022/03/12 02:10:02;;;;;;;8.73;7.33;;;7.80;99.90;;;;;;5071385;28;20469;-60
2022/03/12 02:12:38;;;;;;;10.73;8.63;;;7.80;99.90;;;;;;5070567;28;20474;-60
2022/03/12 02:15:06;;;;;;;10.90;8.50;;;7.80;99.90;;;;;;5070595;28;20908;-60
2022/03/12 02:17:39;;;;;;;11.07;8.93;;;7.80;99.90;;;;;;5076741;28;20923;-60
2022/03/12 02:20:08;;;;;;;9.43;7.80;;;7.80;99.90;;;;;;5076979;28;20468;-60
2022/03/12 02:22:39;;;;;;;9.70;7.10;;;7.80;99.90;;;;;;5072814;28;20832;-60
2022/03/12 02:25:09;;;;;;;12.03;7.63;;;7.80;99.90;;;;;;5057507;28;20840;-60
2022/03/12 02:27:38;;;;;;;8.30;7.20;;;7.80;99.90;;;;;;5072956;28;20489;-60
2022/03/12 02:30:09;;;;;;;9.13;7.83;;;7.80;99.90;;;;;;5062062;28;20569;-57
2022/03/12 02:32:37;;;;;;;9.23;7.33;;;7.80;99.90;;;;;;5058546;28;20465;-60
2022/03/12 02:35:08;;;;;;;9.90;7.80;;;7.90;99.90;;;;;;5076531;28;20465;-60
2022/03/12 02:37:35;;;;;;;9.03;7.70;;;7.90;99.90;;;;;;5075651;28;20490;-58
2022/03/12 02:40:07;;;;;;;9.83;7.83;;;7.90;99.90;;;;;;5070390;28;20741;-59
2022/03/12 02:42:40;;;;;;;11.03;8.70;;;7.90;99.90;;;;;;5065119;28;20461;-59
2022/03/12 02:45:09;;;;;;;9.47;7.67;;;7.80;99.90;;;;;;5076376;28;20468;-60
2022/03/12 02:47:43;;;;;;;8.93;6.60;;;7.90;99.90;;;;;;5077036;28;20497;-60
2022/03/12 02:50:20;;;;;;;12.57;7.77;;;7.90;99.90;;;;;;5072559;28;20465;-54
2022/03/12 02:52:47;;;;;;;9.70;7.97;;;7.90;99.90;;;;;;5056059;28;20464;-60
2022/03/12 02:55:24;;;;;;;9.97;7.70;;;7.80;99.90;;;;;;5064118;28;20906;-61
2022/03/12 02:57:59;;;;;;;11.33;7.80;;;7.80;99.90;;;;;;5076747;28;20475;-59
2022/03/12 03:00:31;;;;;;;9.40;7.70;;;7.80;99.90;;;;;;5076034;28;20469;-60
2022/03/12 03:02:58;;;;;;;9.30;8.30;;;7.80;99.90;;;;;;5069669;28;20516;-60
2022/03/12 03:05:36;;;;;;;8.50;7.10;;;7.80;99.90;;;;;;5057302;28;20508;-59
2022/03/12 03:08:11;;;;;;;9.93;7.60;;;7.70;99.90;;;;;;5055850;28;20462;-55
2022/03/12 03:10:40;;;;;;;14.70;9.17;;;7.70;99.90;;;;;;5074632;28;20467;-57
2022/03/12 03:13:40;;;;;;;9.70;8.20;;;7.70;99.90;;;;;;5070200;28;20514;-61
2022/03/12 03:16:21;;;;;;;11.17;7.33;;;7.70;99.90;;;;;;5069055;28;20481;-60
2022/03/12 03:19:02;;;;;;;9.07;7.97;;;7.60;99.90;;;;;;5063223;28;20932;-60
2022/03/12 03:21:32;;;;;;;10.17;7.70;;;7.60;99.90;;;;;;5075387;28;20552;-60
2022/03/12 03:24:00;;;;;;;13.17;8.33;;;7.50;99.90;;;;;;5075922;28;20556;-59
2022/03/12 03:26:50;;;;;;;9.83;7.63;;;7.60;99.90;;;;;;5075837;28;20629;-61
2022/03/12 03:29:21;;;;;;;10.43;8.07;;;7.50;99.90;;;;;;5056834;28;20459;-59
2022/03/12 03:31:54;;;;;;;9.80;7.80;;;7.60;99.90;;;;;;5058162;28;20466;-60
2022/03/12 03:34:24;;;;;;;11.10;7.87;;;7.60;99.90;;;;;;5075442;28;20493;-59
2022/03/12 03:36:55;;;;;;;10.70;8.30;;;7.50;99.90;;;;;;5075302;28;20461;-60
2022/03/12 03:39:22;;;;;;;11.43;8.60;;;7.50;99.90;;;;;;5076134;28;20465;-60
2022/03/12 03:41:49;;;;;;;10.30;7.47;;;7.50;99.90;;;;;;5076233;28;20518;-59
2022/03/12 03:44:27;;;;;;;11.43;8.60;;;7.40;99.90;;;;;;5056721;28;20520;-56
2022/03/12 03:47:00;;;;;;;8.70;7.80;;;7.40;99.90;;;;;;5062216;28;20493;-57
2022/03/12 03:49:27;;;;;;;15.43;7.80;;;7.30;99.90;;;;;;5059921;28;20744;-60
2022/03/12 03:51:56;;;;;;;10.30;8.40;;;7.30;99.90;;;;;;5060213;28;20462;-57
2022/03/12 03:54:28;;;;;;;9.53;8.17;;;7.20;99.90;;;;;;5074737;28;20906;-58
2022/03/12 03:56:55;;;;;;;9.10;7.60;;;7.20;99.90;;;;;;5078795;28;20459;-56
2022/03/12 03:59:32;;;;;;;9.60;8.27;;;7.20;99.90;;;;;;5079564;28;20457;-59
2022/03/12 04:01:59;;;;;;;12.90;8.13;;;7.20;99.90;;;;;;5079949;28;20464;-55
2022/03/12 04:04:36;;;;;;;16.20;8.60;;;7.20;99.90;;;;;;5062328;28;20462;-58
2022/03/12 04:07:11;;;;;;;13.53;8.13;;;7.20;99.90;;;;;;5064079;28;20484;-57
2022/03/12 04:09:53;;;;;;;9.13;7.73;;;7.20;99.90;;;;;;5078447;28;20767;-56
2022/03/12 04:12:24;;;;;;;8.57;7.30;;;7.20;99.90;;;;;;5074311;28;20464;-57
2022/03/12 04:15:06;;;;;;;10.57;7.93;;;7.20;99.90;;;;;;5078420;28;20467;-60
2022/03/12 04:17:34;;;;;;;8.67;7.20;;;7.20;99.90;;;;;;5060863;28;20516;-58
2022/03/12 04:20:09;;;;;;;9.47;7.90;;;7.20;99.90;;;;;;5063844;28;20523;-58
2022/03/12 04:22:41;;;;;;;11.17;7.87;;;7.20;99.90;;;;;;5059901;28;20461;-60
2022/03/12 04:25:16;;;;;;;15.73;7.90;;;7.30;99.90;;;;;;5064385;28;20520;-56
2022/03/12 04:27:45;;;;;;;11.20;7.73;;;7.20;99.90;;;;;;5061339;28;20489;-60
2022/03/12 04:30:19;;;;;;;10.00;7.43;;;7.30;99.90;;;;;;5059087;28;20748;-58
2022/03/12 04:32:46;;;;;;;9.50;8.07;;;7.30;99.90;;;;;;5059317;28;20470;-56
2022/03/12 04:35:18;;;;;;;9.67;8.23;;;7.20;99.90;;;;;;5065769;28;20473;-57
2022/03/12 04:37:45;;;;;;;9.23;8.23;;;7.20;99.90;;;;;;5079099;28;20470;-57
2022/03/12 04:40:19;;;;;;;8.50;7.70;;;7.20;99.90;;;;;;5060533;28;20470;-60
2022/03/12 04:42:49;;;;;;;10.80;7.77;;;7.30;99.90;;;;;;5059266;28;20466;-60
2022/03/12 04:45:22;;;;;;;9.60;7.47;;;7.30;99.90;;;;;;5062588;28;20940;-57
2022/03/12 04:47:51;;;;;;;8.67;7.30;;;7.30;99.90;;;;;;5070280;28;20506;-60
2022/03/12 04:50:20;;;;;;;11.80;8.13;;;7.30;99.90;;;;;;5059033;28;20466;-60
2022/03/12 04:52:49;;;;;;;9.40;8.00;;;7.30;99.90;;;;;;5073093;28;20465;-58
2022/03/12 04:55:18;;;;;;;8.30;7.20;;;7.30;99.90;;;;;;5077928;28;20461;-59
2022/03/12 04:57:46;;;;;;;13.40;8.97;;;7.30;99.90;;;;;;5058552;28;20465;-59
2022/03/12 05:00:25;;;;;;;12.67;8.27;;;7.30;99.90;;;;;;5058181;28;20462;-60
2022/03/12 05:02:55;;;;;;;12.07;7.70;;;7.30;99.90;;;;;;5079281;28;20478;-60
2022/03/12 05:05:29;;;;;;;8.87;7.57;;;7.30;99.90;;;;;;5072324;28;20454;-59
2022/03/12 05:07:59;;;;;;;10.50;8.60;;;7.20;99.90;;;;;;5059943;28;20585;-59
2022/03/12 05:10:29;;;;;;;11.13;7.50;;;7.20;99.90;;;;;;5062159;28;20565;-56
2022/03/12 05:13:00;;;;;;;11.00;8.83;;;7.20;99.90;;;;;;5078128;28;20472;-56
2022/03/12 05:15:37;;;;;;;11.23;8.07;;;7.20;99.90;;;;;;5077853;28;21002;-60
2022/03/12 05:18:07;;;;;;;10.77;8.63;;;7.30;99.90;;;;;;5075910;28;20472;-59
2022/03/12 05:20:37;;;;;;;10.50;8.30;;;7.20;99.90;;;;;;5077731;28;20465;-60
2022/03/12 05:23:09;;;;;;;8.50;7.57;;;7.20;99.90;;;;;;5080796;28;20564;-60
2022/03/12 05:25:40;;;;;;;13.40;9.60;;;7.20;99.90;;;;;;5065460;28;20803;-60
2022/03/12 05:28:12;;;;;;;9.67;7.33;;;7.20;99.90;;;;;;5071660;28;20493;-59
2022/03/12 05:30:53;;;;;;;10.80;8.57;;;7.20;99.90;;;;;;5080441;28;20469;-60
2022/03/12 05:33:23;;;;;;;10.57;7.37;;;7.10;99.90;;;;;;5079378;28;20551;-60
2022/03/12 05:35:54;;;;;;;12.93;8.80;;;7.20;99.90;;;;;;5080846;28;20940;-60
2022/03/12 05:38:24;;;;;;;10.50;7.50;;;7.10;99.90;;;;;;5076685;28;20964;-60
2022/03/12 05:40:55;;;;;;;9.10;7.20;;;7.00;99.90;;;;;;5060407;28;20815;-61
2022/03/12 05:43:22;;;;;;;11.80;8.00;;;7.00;99.90;;;;;;5060278;28;20472;-60
2022/03/12 05:45:56;;;;;;;16.20;8.57;;;6.90;99.90;;;;;;5062217;28;20511;-60
2022/03/12 05:48:27;;;;;;;11.13;8.63;;;6.80;99.90;;;;;;5069723;28;20485;-60
2022/03/12 05:51:09;;;;;;;9.67;8.20;;;6.80;99.90;;;;;;5062423;28;20465;-59
2022/03/12 05:53:44;;;;;;;10.07;8.80;;;6.80;99.90;;;;;;5067058;28;20469;-60
2022/03/12 05:56:14;;;;;;;10.53;8.30;;;6.70;99.90;;;;;;5059725;28;20465;-60
2022/03/12 05:58:42;;;;;;;9.30;8.33;;;6.70;99.90;;;;;;5067717;28;20460;-59
2022/03/12 06:01:30;;;;;;;9.23;8.27;;;6.60;99.90;;;;;;5063181;28;20469;-60
2022/03/12 06:04:00;;;;;;;10.93;8.10;;;6.70;99.90;;;;;;5059883;28;20494;-59
2022/03/12 06:06:30;;;;;;;12.73;9.00;;;6.60;99.90;;;;;;5068368;28;20469;-60
2022/03/12 06:08:57;;;;;;;10.00;8.10;;;6.60;99.90;;;;;;5076616;28;20493;-59
2022/03/12 06:11:28;;;;;;;11.97;8.70;;;6.60;99.90;;;;;;5075209;28;20814;-60
2022/03/12 06:13:59;;;;;;;10.97;8.30;;;6.60;99.90;;;;;;5076064;28;20476;-60
2022/03/12 06:16:31;;;;;;;10.77;9.00;;;6.60;99.90;;;;;;5079154;28;20511;-57
2022/03/12 06:19:04;;;;;;;12.63;8.43;;;6.50;99.90;;;;;;5073724;28;20908;-60
2022/03/12 06:21:31;;;;;;;9.97;8.30;;;6.60;99.90;;;;;;5066717;28;20512;-59
2022/03/12 06:24:00;;;;;;;9.83;7.53;;;6.60;99.90;;;;;;5059588;28;20466;-60
2022/03/12 06:26:35;;;;;;;9.80;8.20;;;6.60;99.90;;;;;;5059470;28;20514;-59
2022/03/12 06:29:03;;;;;;;13.37;7.90;;;6.60;99.90;;;;;;5074834;28;20492;-60
2022/03/12 06:31:37;;;;;;;11.93;8.17;;;6.70;99.90;;;;;;5076122;28;20458;-55
2022/03/12 06:34:12;;;;;;;9.70;7.60;;;6.70;99.90;;;;;;5060762;28;20468;-55
2022/03/12 06:36:44;;;;;;;12.07;8.80;;;6.70;99.90;;;;;;5056986;28;20494;-58
2022/03/12 06:39:14;;;;;;;14.80;8.00;;;6.80;99.90;;;;;;5068683;28;20571;-59
2022/03/12 06:41:45;;;;;;;13.70;7.90;;;6.80;99.90;;;;;;5077292;28;20492;-55
2022/03/12 06:44:20;;;;;;;10.30;9.03;;;6.90;99.90;;;;;;5073911;28;20492;-57
2022/03/12 06:46:53;;;;;;;8.33;7.53;;;6.90;99.90;;;;;;5070458;28;20461;-54
2022/03/12 06:49:23;;;;;;;9.57;8.47;;;7.00;99.90;;;;;;5075356;28;20472;-60
2022/03/12 06:51:50;;;;;;;9.97;7.90;;;7.00;99.90;;;;;;5068800;28;20481;-59
2022/03/12 06:54:23;;;;;;;12.67;8.60;;;7.00;99.90;;;;;;5073648;28;20882;-60
2022/03/12 06:56:51;;;;;;;10.30;8.93;;;7.10;99.90;;;;;;5075504;28;20461;-60
2022/03/12 06:59:20;;;;;;;10.00;8.47;;;7.20;99.90;;;;;;5072847;28;20767;-60
2022/03/12 07:01:49;;;;;;;9.47;7.53;;;7.40;99.90;;;;;;5073012;28;20472;-58
2022/03/12 07:04:16;;;;;;;10.30;8.37;;;7.60;99.90;;;;;;5058426;28;20536;-60
2022/03/12 07:09:27;;;;;;;14.20;7.83;;;7.90;99.90;;;;;;5073322;28;20453;-60
2022/03/12 07:11:56;;;;;;;9.20;8.27;;;8.10;99.90;;;;;;5062973;28;20469;-58
2022/03/12 07:14:27;;;;;;;13.23;8.50;;;8.30;99.90;;;;;;5075439;28;20750;-57
2022/03/12 07:16:59;;;;;;;10.80;8.17;;;8.50;99.90;;;;;;5056845;28;20490;-60
2022/03/12 07:19:27;;;;;;;10.70;8.57;;;8.70;99.90;;;;;;5068771;28;20461;-59
2022/03/12 07:21:54;;;;;;;9.20;8.30;;;8.70;99.90;;;;;;5077896;28;20465;-60
2022/03/12 07:24:25;;;;;;;8.70;7.80;;;8.80;99.90;;;;;;5077741;28;20921;-60
2022/03/12 07:26:55;;;;;;;10.10;7.93;;;8.80;99.90;;;;;;5079532;28;20910;-58
2022/03/12 07:29:22;;;;;;;11.70;8.07;;;8.90;99.90;;;;;;5078944;28;20941;-60
2022/03/12 07:31:50;;;;;;;11.10;9.23;;;8.90;99.90;;;;;;5079935;28;20461;-56
2022/03/12 07:34:27;;;;;;;9.30;8.07;;;8.80;99.90;;;;;;5065723;28;20792;-59
2022/03/12 07:37:00;;;;;;;10.37;8.27;;;8.70;99.90;;;;;;5074359;28;20496;-55
2022/03/12 07:39:35;;;;;;;10.37;8.53;;;8.60;99.90;;;;;;5059591;28;20808;-58
2022/03/12 07:42:05;;;;;;;12.27;9.40;;;8.50;99.90;;;;;;5071980;28;20514;-54
2022/03/12 07:44:32;;;;;;;11.20;7.40;;;8.40;99.90;;;;;;5080128;28;20507;-60
2022/03/12 07:47:00;;;;;;;11.67;9.13;;;8.50;99.90;;;;;;5066633;28;20520;-59
2022/03/12 07:49:31;;;;;;;10.93;9.80;;;8.60;99.90;;;;;;5060027;28;20493;-58
2022/03/12 07:51:58;;;;;;;9.50;8.50;;;8.70;99.90;;;;;;5059737;28;20556;-60
2022/03/12 07:54:30;;;;;;;12.10;8.70;;;8.90;99.90;;;;;;5066389;28;20919;-55
2022/03/12 07:56:59;;;;;;;9.53;8.30;;;9.10;99.90;;;;;;5076143;28;20522;-56
2022/03/12 07:59:29;;;;;;;9.83;8.13;;;9.30;99.90;;;;;;5078496;28;20526;-55
2022/03/12 08:01:58;;;;;;;10.70;8.87;;;9.50;99.90;;;;;;5077614;28;20493;-56
2022/03/12 08:04:30;;;;;;;11.33;9.07;;;9.50;99.90;;;;;;5076705;28;20461;-59
2022/03/12 08:07:14;;;;;;;10.83;9.17;;;9.40;99.90;;;;;;5079765;28;20461;-59
2022/03/12 08:09:47;;;;;;;11.37;9.00;;;9.60;99.90;;;;;;5074439;28;20457;-56
2022/03/12 08:12:15;;;;;;;10.20;9.10;;;9.90;99.90;;;;;;5079483;28;20453;-54
2022/03/12 08:14:44;;;;;;;9.30;7.77;;;10.20;99.90;;;;;;5076564;28;20461;-58
2022/03/12 08:17:14;;;;;;;9.90;8.53;;;10.20;99.90;;;;;;5079407;28;20499;-59
2022/03/12 08:19:47;;;;;;;11.03;9.03;;;10.10;99.90;;;;;;5077221;28;20773;-58
2022/03/12 08:22:16;;;;;;;10.03;8.50;;;10.10;99.90;;;;;;5079182;28;20461;-60
2022/03/12 08:24:50;;;;;;;10.43;8.50;;;10.30;99.90;;;;;;5059177;28;20527;-59
2022/03/12 08:27:18;;;;;;;10.57;8.67;;;10.40;99.90;;;;;;5069776;28;20842;-60
2022/03/12 08:29:45;;;;;;;9.60;8.43;;;10.40;99.90;;;;;;5078943;28;20523;-53
2022/03/12 08:32:17;;;;;;;10.77;9.20;;;10.30;99.90;;;;;;5079379;28;20461;-60
2022/03/12 08:34:47;;;;;;;8.60;7.70;;;10.40;99.90;;;;;;5077633;28;20898;-57
2022/03/12 08:37:21;;;;;;;11.73;8.83;;;10.50;99.90;;;;;;5079172;28;20884;-60
2022/03/12 08:39:48;;;;;;;10.27;9.20;;;10.70;99.90;;;;;;5064117;28;20528;-60
2022/03/12 08:42:18;;;;;;;11.97;8.33;;;11.00;99.90;;;;;;5059149;28;20512;-60
2022/03/12 08:44:45;;;;;;;10.17;8.30;;;11.10;99.90;;;;;;5059313;28;20466;-58
2022/03/12 08:47:12;;;;;;;10.20;8.70;;;11.10;99.90;;;;;;5074614;28;20473;-60
2022/03/12 08:49:44;;;;;;;9.80;7.97;;;11.00;99.90;;;;;;5078782;28;20784;-59
2022/03/12 08:52:24;;;;;;;11.07;8.53;;;11.00;99.90;;;;;;5079227;28;20889;-54
2022/03/12 08:54:57;;;;;;;10.07;9.07;;;11.30;99.90;;;;;;5068207;28;20469;-60
2022/03/12 08:57:36;;;;;;;8.93;8.03;;;11.40;99.90;;;;;;5059382;28;20472;-60
2022/03/12 09:00:09;;;;;;;9.03;7.57;;;11.50;99.90;;;;;;5058933;28;20469;-60
2022/03/12 09:02:41;;;;;;;10.23;8.93;;;11.40;99.90;;;;;;5059446;28;20472;-59
2022/03/12 09:05:22;;;;;;;10.00;9.00;;;11.80;99.90;;;;;;5071234;28;20900;-60
2022/03/12 09:07:52;;;;;;;11.03;9.40;;;12.40;99.90;;;;;;5067299;28;20925;-60
2022/03/12 09:10:21;;;;;;;9.13;8.23;;;12.40;99.90;;;;;;5070368;28;20994;-60
2022/03/12 09:12:49;;;;;;;10.33;9.23;;;12.60;99.90;;;;;;5066146;28;20906;-60
2022/03/12 09:15:21;;;;;;;11.67;8.70;;;12.70;99.90;;;;;;5070596;28;20542;-58
2022/03/12 09:17:51;;;;;;;9.37;8.40;;;12.60;99.90;;;;;;5063338;28;20979;-60
2022/03/12 09:20:23;;;;;;;12.67;10.00;;;12.70;99.90;;;;;;5068048;28;20547;-59
2022/03/12 09:22:53;;;;;;;10.67;9.57;;;12.70;99.90;;;;;;5061117;28;20558;-60
2022/03/12 09:25:23;;;;;;;8.83;7.93;;;13.00;99.90;;;;;;5071973;28;20566;-60
2022/03/12 09:27:55;;;;;;;10.07;9.07;;;13.30;99.90;;;;;;5061977;28;20457;-59
2022/03/12 09:30:30;;;;;;;9.70;8.70;;;13.50;99.90;;;;;;5064392;28;20535;-60
2022/03/12 09:32:57;;;;;;;9.50;8.53;;;13.80;99.90;;;;;;5070567;28;20469;-59
2022/03/12 09:35:25;;;;;;;9.70;8.80;;;13.90;99.90;;;;;;5075298;28;20469;-59
2022/03/12 09:37:55;;;;;;;9.47;8.30;;;13.80;99.90;;;;;;5068990;28;20465;-60
2022/03/12 09:40:22;;;;;;;10.63;9.50;;;13.70;99.90;;;;;;5066092;28;20548;-60
2022/03/12 09:42:51;;;;;;;9.50;8.27;;;13.90;99.90;;;;;;5064459;28;20483;-59
2022/03/12 09:45:26;;;;;;;10.97;8.60;;;14.30;99.90;;;;;;5063925;28;20804;-60
2022/03/12 09:48:02;;;;;;;9.00;8.00;;;14.50;99.90;;;;;;5067941;28;20472;-60
2022/03/12 09:50:38;;;;;;;11.03;9.03;;;14.80;99.90;;;;;;5069399;28;20465;-60
2022/03/12 09:53:13;;;;;;;8.90;7.80;;;14.80;99.90;;;;;;5067005;28;20819;-59
2022/03/12 09:55:43;;;;;;;8.90;7.83;;;14.70;99.90;;;;;;5063524;28;20510;-60
2022/03/12 09:58:12;;;;;;;10.40;9.27;;;14.60;99.90;;;;;;5063287;28;20458;-60
2022/03/12 10:00:51;;;;;;;9.63;8.63;;;14.50;99.90;;;;;;5064305;28;20556;-61
2022/03/12 10:03:18;;;;;;;11.07;9.23;;;14.20;99.90;;;;;;5066800;28;20909;-60
2022/03/12 10:05:49;;;;;;;9.63;8.63;;;13.90;99.90;;;;;;5064889;28;20461;-60
2022/03/12 10:08:18;;;;;;;11.10;9.37;;;14.00;99.90;;;;;;5060621;28;20485;-60
2022/03/12 10:10:45;;;;;;;9.93;9.00;;;14.20;99.90;;;;;;5069300;28;20527;-61
2022/03/12 10:13:14;;;;;;;10.40;9.40;;;14.50;99.90;;;;;;5063743;28;20459;-58
2022/03/12 10:15:44;;;;;;;10.33;8.67;;;14.70;99.90;;;;;;5065478;28;20476;-55
2022/03/12 10:18:13;;;;;;;10.13;9.10;;;15.00;99.90;;;;;;5068260;28;20466;-58
2022/03/12 10:20:45;;;;;;;10.93;9.83;;;14.90;99.90;;;;;;5068900;28;20959;-59
2022/03/12 10:23:14;;;;;;;10.83;9.77;;;14.80;99.90;;;;;;5066673;28;20461;-57
2022/03/12 10:25:53;;;;;;;10.83;9.07;;;14.90;99.90;;;;;;5068596;28;20782;-58
2022/03/12 10:28:21;;;;;;;10.87;8.77;;;15.20;99.90;;;;;;5067950;28;20796;-55
2022/03/12 10:30:50;;;;;;;9.50;8.60;;;15.50;99.90;;;;;;5065490;28;20760;-60
2022/03/12 10:33:27;;;;;;;9.77;8.77;;;15.60;99.90;;;;;;5065251;28;20462;-59
2022/03/12 10:36:15;;;;;;;11.80;10.57;;;15.70;99.90;;;;;;5065988;28;20468;-60
2022/03/12 10:38:44;;;;;;;9.77;8.87;;;15.40;99.90;;;;;;5066459;28;20445;-60
2022/03/12 10:41:14;;;;;;;10.77;9.50;;;15.50;99.90;;;;;;5066294;28;20450;-60
2022/03/12 10:43:55;;;;;;;12.37;9.73;;;15.60;99.90;;;;;;5062912;28;20963;-60
2022/03/12 10:46:27;;;;;;;10.63;9.73;;;15.90;99.90;;;;;;5063741;28;20457;-60
2022/03/12 10:49:04;;;;;;;10.97;9.87;;;16.30;99.90;;;;;;5064075;28;20470;-60
2022/03/12 10:51:38;;;;;;;10.47;9.37;;;16.30;99.90;;;;;;5062670;28;20466;-60
2022/03/12 10:54:08;;;;;;;11.07;9.97;;;16.10;99.90;;;;;;5065096;28;20461;-60
2022/03/12 10:56:44;;;;;;;11.17;9.97;;;16.40;99.90;;;;;;5065836;28;20756;-60
2022/03/12 10:59:14;;;;;;;9.93;9.03;;;16.60;99.90;;;;;;5063797;28;21113;-60
2022/03/12 11:01:50;;;;;;;10.40;9.30;;;16.70;99.90;;;;;;5066184;28;20511;-60
2022/03/12 11:04:24;;;;;;;10.77;9.80;;;16.90;99.90;;;;;;5065194;28;20485;-60
2022/03/12 11:06:54;;;;;;;10.77;9.73;;;16.90;99.90;;;;;;5065861;28;20906;-60
2022/03/12 11:09:37;;;;;;;11.03;9.93;;;17.00;99.90;;;;;;5066248;28;20584;-60
2022/03/12 11:12:30;;;;;;;9.97;9.03;;;17.00;99.90;;;;;;5062538;28;20549;-60
2022/03/12 11:15:06;;;;;;;10.37;8.80;;;17.20;99.90;;;;;;5061156;28;20473;-60
2022/03/12 11:17:43;;;;;;;11.07;9.90;;;17.20;99.90;;;;;;5066224;28;20464;-60
2022/03/12 11:20:17;;;;;;;13.60;9.60;;;17.00;99.90;;;;;;5062579;28;20466;-59
2022/03/12 11:22:51;;;;;;;10.47;9.57;;;17.10;99.90;;;;;;5064219;28;20556;-60
2022/03/12 11:25:22;;;;;;;11.50;10.40;;;17.20;99.90;;;;;;5067278;28;20464;-60
2022/03/12 11:27:50;;;;;;;10.90;9.90;;;17.00;99.90;;;;;;5069093;28;20475;-60
2022/03/12 11:30:26;;;;;;;11.73;10.70;;;16.30;99.90;;;;;;5063174;28;20489;-59
2022/03/12 11:33:06;;;;;;;10.27;9.27;;;16.20;99.90;;;;;;5067445;28;20817;-60
2022/03/12 11:35:39;;;;;;;11.37;10.17;;;16.40;99.90;;;;;;5076770;28;20461;-60
2022/03/12 11:38:17;;;;;;;11.43;10.23;;;16.50;99.90;;;;;;5070837;28;20550;-60
2022/03/12 11:40:49;;;;;;;12.30;10.17;;;16.50;99.90;;;;;;5076451;28;20461;-60
2022/03/12 11:43:40;;;;;;;10.70;9.60;;;16.90;99.90;;;;;;5075218;28;20526;-60
2022/03/12 11:46:10;;;;;;;10.87;9.63;;;17.10;99.90;;;;;;5044850;28;20474;-60
2022/03/12 11:48:41;;;;;;;10.60;9.50;;;17.20;99.90;;;;;;5055815;28;20827;-60
2022/03/12 11:51:21;;;;;;;10.70;9.73;;;17.30;99.90;;;;;;5056976;28;20488;-60
2022/03/12 11:54:00;;;;;;;10.60;9.60;;;17.30;99.90;;;;;;5057231;28;20466;-60
2022/03/12 11:56:34;;;;;;;11.80;9.20;;;17.10;99.90;;;;;;5064233;28;20524;-58
2022/03/12 11:59:06;;;;;;;9.53;8.73;;;16.80;99.90;;;;;;5062906;28;20778;-59
2022/03/12 12:01:44;;;;;;;10.27;9.07;;;17.00;99.90;;;;;;5057080;28;20496;-60
2022/03/12 12:04:15;;;;;;;10.97;9.87;;;16.90;99.90;;;;;;5065554;28;20465;-60
2022/03/12 12:06:48;;;;;;;9.47;8.40;;;17.10;99.90;;;;;;5072771;28;20471;-60
2022/03/12 12:09:16;;;;;;;11.57;9.17;;;17.20;99.90;;;;;;5068248;28;20811;-58
2022/03/12 12:11:44;;;;;;;11.60;8.50;;;17.00;99.90;;;;;;5072493;28;20465;-60
2022/03/12 12:14:18;;;;;;;10.73;9.73;;;17.00;99.90;;;;;;5079032;28;20467;-57
2022/03/12 12:16:47;;;;;;;9.40;8.60;;;16.80;99.90;;;;;;5078569;28;20944;-60
2022/03/12 12:19:18;;;;;;;11.03;9.97;;;16.30;99.90;;;;;;5078512;28;20465;-60
2022/03/12 12:21:45;;;;;;;9.90;8.90;;;15.70;99.90;;;;;;5069832;28;20966;-59
2022/03/12 12:24:29;;;;;;;10.50;9.50;;;15.40;99.90;;;;;;5065917;28;20475;-58
2022/03/12 12:27:08;;;;;;;10.87;9.60;;;15.50;99.90;;;;;;5066773;28;20572;-60
2022/03/12 12:29:47;;;;;;;11.23;8.87;;;15.60;99.90;;;;;;5068607;28;20488;-60
2022/03/12 12:32:18;;;;;;;11.00;8.70;;;16.00;99.90;;;;;;5073547;28;20895;-60
2022/03/12 12:35:14;;;;;;;10.90;9.83;;;15.60;99.90;;;;;;5067842;28;20824;-60
2022/03/12 12:37:44;;;;;;;10.70;9.67;;;15.60;99.90;;;;;;5063244;28;20498;-59
2022/03/12 12:40:19;;;;;;;10.57;9.57;;;15.80;99.90;;;;;;5067538;28;20450;-59
2022/03/12 12:42:46;;;;;;;10.20;9.20;;;15.80;99.90;;;;;;5068889;28;20457;-60
2022/03/12 12:45:16;;;;;;;10.77;9.77;;;15.90;99.90;;;;;;5065966;28;20454;-59
2022/03/12 12:47:43;;;;;;;9.63;8.60;;;16.10;99.90;;;;;;5066131;28;20493;-57
2022/03/12 12:50:24;;;;;;;10.93;9.93;;;16.30;99.90;;;;;;5066500;28;20497;-60
2022/03/12 12:53:38;;;;;;;9.77;8.90;;;16.10;99.90;;;;;;5065070;28;20476;-60
2022/03/12 12:56:31;;;;;;;10.23;8.60;;;15.80;99.90;;;;;;5068380;28;20470;-60
2022/03/12 12:59:16;;;;;;;11.80;8.90;;;15.50;99.90;;;;;;5067917;28;20458;-60
2022/03/12 13:02:08;;;;;;;13.50;8.40;;;15.60;99.90;;;;;;5068819;28;20453;-58
2022/03/12 13:04:51;;;;;;;10.37;9.37;;;15.20;99.90;;;;;;5065363;28;20555;-60
2022/03/12 13:07:31;;;;;;;11.43;10.23;;;15.10;99.90;;;;;;5067938;28;20457;-60
2022/03/12 13:10:06;;;;;;;10.10;9.10;;;15.10;99.90;;;;;;5068857;28;20542;-58
2022/03/12 13:12:45;;;;;;;9.63;8.63;;;15.10;99.90;;;;;;5071006;28;20831;-60
2022/03/12 13:15:19;;;;;;;9.70;8.70;;;15.20;99.90;;;;;;5061099;28;20531;-59
2022/03/12 13:17:48;;;;;;;9.60;8.70;;;15.20;99.90;;;;;;5066055;28;20469;-60
2022/03/12 13:20:54;;;;;;;9.00;8.07;;;15.10;99.90;;;;;;5069535;28;20837;-59
2022/03/12 13:23:29;;;;;;;9.20;8.30;;;14.90;99.90;;;;;;5061913;28;20465;-60
2022/03/12 13:25:59;;;;;;;8.50;7.63;;;14.80;99.90;;;;;;5065053;28;20453;-59
2022/03/12 13:28:44;;;;;;;8.53;7.77;;;14.80;99.90;;;;;;5067054;28;20559;-59
2022/03/12 13:31:19;;;;;;;8.80;8.00;;;15.00;99.90;;;;;;5070111;28;20940;-60